Pagrindinis puslapis
METAR-TAF:

METAR-TAF

Oro uostai :

Waco, Teksasas, Jungtinės Amerikos Valstijos

platuma: 31-37-02N, ilguma: 097-13-40W, Aukštis: 157 m

Dabartinis oras

Ataskaita buvo paskelbta 54 minutes, ne 12:51 UTC
Ramus vėjas
Temperatūra 6°C
Drėgmė 100%
Slėgis 1027 hPa
Matomumas: 16.1 km
Giedras dangus

METAR: KACT 171251Z 00000KT 10SM CLR 06/06 A3033 RMK AO2 SLP270 T00610056

Laikas: 08:45 (13:45 UTC)

Prognozė

Ataskaita buvo paskelbta 2 valandos ir 25 minutes, ne 11:20 UTC
Prognozė galioja nuo 17 metu 12 UTC su 18 metu 12 UTC
Vėjas 3 kt nuo kintamojo kryptimis
Matomumas: 10 km
Išsisklaidę debesys ne aukštis 25000 ft
Nuo 17 metu 1800 UTC
Vėjas 5 kt iš Pietų/Pietryčių
Matomumas: 10 km
Išsisklaidę debesys ne aukštis 25000 ft

TAF: KACT 171120Z 1712/1812 VRB03KT P6SM SCT250 FM171800 15005KT P6SM SCT250

Orai ataskaitas ir orų prognozės (METAR, TAF).

turimą stotys yra geltonos ir raudonos taškus žemėlapyje.

Perkelti pele per norėdami pamatyti stoties vardą.

Tada spustelėkite, norėdami matyti oro stebėjimo ir prognozės.

Norėdami pakeisti žemėlapį: spustelėkite ant žalios mygtukų su juodo kryžiaus žemyn,; žalią mygtuką su brūkšneliu, jei norite nutolinti; arba žalių rodyklių gretimoms žemėlapius.


METAR-TAF: